Time;durP1;ratioP1;P1;durP2;ratioP2;P2;SDS_P1;SDS_P2;PMS_P1;PMS_P2;Temp;Humidity;BMP_temperature;BMP_pressure;BME280_temperature;BME280_humidity;BME280_pressure;Samples;Min_cycle;Max_cycle;Signal;HPM_P1;HPM_P2
2020/12/22 00:22:47;;;;;;;10.40;6.60;;;;;;;;;;1521307;23;20527;-82
2020/12/22 00:25:18;;;;;;;10.30;6.77;;;;;;;;;;4829399;29;20218;-82
2020/12/22 00:27:52;;;;;;;7.87;5.70;;;;;;;;;;4804852;29;20238;-84
2020/12/22 00:30:20;;;;;;;8.00;5.17;;;;;;;;;;4817941;29;20666;-84
2020/12/22 00:32:49;;;;;;;8.20;5.50;;;;;;;;;;4829674;29;20235;-83
2020/12/22 00:35:17;;;;;;;6.03;4.67;;;;;;;;;;4834545;29;20683;-86
2020/12/22 00:37:48;;;;;;;6.27;5.10;;;;;;;;;;4835486;29;20588;-83
2020/12/22 00:40:16;;;;;;;5.60;4.63;;;;;;;;;;4831495;29;20211;-82
2020/12/22 00:42:44;;;;;;;4.90;4.03;;;;;;;;;;4830287;29;20242;-83
2020/12/22 00:45:13;;;;;;;5.53;4.00;;;;;;;;;;4815170;29;20666;-82
2020/12/22 00:47:40;;;;;;;5.10;4.10;;;;;;;;;;4828969;29;20736;-82
2020/12/22 00:50:08;;;;;;;6.27;4.47;;;;;;;;;;4828472;29;20215;-83
2020/12/22 00:52:36;;;;;;;5.10;3.70;;;;;;;;;;4833548;29;20698;-86
2020/12/22 00:55:05;;;;;;;4.87;3.30;;;;;;;;;;4810993;29;20729;-82
2020/12/22 00:57:34;;;;;;;4.20;3.30;;;;;;;;;;4816946;29;20214;-83
2020/12/22 01:00:12;;;;;;;4.57;3.33;;;;;;;;;;4814955;29;20623;-85
2020/12/22 01:02:40;;;;;;;3.10;2.70;;;;;;;;;;4826942;29;20239;-82
2020/12/22 01:05:09;;;;;;;2.97;2.67;;;;;;;;;;4838968;29;20218;-82
2020/12/22 01:07:37;;;;;;;3.97;2.90;;;;;;;;;;4815964;29;20228;-84
2020/12/22 01:10:05;;;;;;;3.63;2.80;;;;;;;;;;4825356;29;20219;-83
2020/12/22 01:12:33;;;;;;;3.90;2.60;;;;;;;;;;4832581;29;20235;-82
2020/12/22 01:15:01;;;;;;;4.10;2.80;;;;;;;;;;4826352;29;20211;-82
2020/12/22 01:17:28;;;;;;;3.70;3.17;;;;;;;;;;4826803;29;20207;-83
2020/12/22 01:19:56;;;;;;;3.67;3.10;;;;;;;;;;4829607;29;20218;-82
2020/12/22 01:22:24;;;;;;;3.40;2.73;;;;;;;;;;4831722;29;20246;-87
2020/12/22 01:24:51;;;;;;;4.33;3.17;;;;;;;;;;4828268;29;20220;-87
2020/12/22 01:27:20;;;;;;;4.17;3.37;;;;;;;;;;4815476;29;20235;-81
2020/12/22 01:29:48;;;;;;;3.40;2.70;;;;;;;;;;4823207;29;20712;-81
2020/12/22 01:32:15;;;;;;;3.80;3.20;;;;;;;;;;4823640;29;20243;-82
2020/12/22 01:34:44;;;;;;;4.50;3.10;;;;;;;;;;4816925;29;20215;-85
2020/12/22 01:37:12;;;;;;;4.17;3.30;;;;;;;;;;4821278;29;20298;-87
2020/12/22 01:39:40;;;;;;;3.27;2.60;;;;;;;;;;4814396;29;20691;-81
2020/12/22 01:42:09;;;;;;;4.67;3.43;;;;;;;;;;4807662;29;20242;-81
2020/12/22 01:44:37;;;;;;;3.50;2.93;;;;;;;;;;4819398;29;22146;-84
2020/12/22 01:47:05;;;;;;;3.63;2.83;;;;;;;;;;4826046;29;20238;-85
2020/12/22 01:49:33;;;;;;;4.77;3.47;;;;;;;;;;4808858;29;20227;-81
2020/12/22 01:52:02;;;;;;;4.93;3.13;;;;;;;;;;4822001;29;20247;-85
2020/12/22 01:54:31;;;;;;;3.50;3.20;;;;;;;;;;4824867;29;20211;-81
2020/12/22 01:56:58;;;;;;;3.53;3.03;;;;;;;;;;4824563;29;20207;-81
2020/12/22 01:59:26;;;;;;;3.87;3.20;;;;;;;;;;4826219;29;20211;-83
2020/12/22 02:01:55;;;;;;;5.60;3.00;;;;;;;;;;4810585;29;20236;-83
2020/12/22 02:04:22;;;;;;;3.60;2.97;;;;;;;;;;4833126;29;20211;-83
2020/12/22 02:06:50;;;;;;;3.37;2.90;;;;;;;;;;4826098;29;20573;-86
2020/12/22 02:09:17;;;;;;;3.83;2.97;;;;;;;;;;4828578;29;20207;-87
2020/12/22 02:11:45;;;;;;;3.37;2.60;;;;;;;;;;4829157;29;20235;-82
2020/12/22 02:14:13;;;;;;;3.13;2.67;;;;;;;;;;4817994;29;20206;-82
2020/12/22 02:16:40;;;;;;;3.67;2.57;;;;;;;;;;4817548;29;20214;-82
2020/12/22 02:19:23;;;;;;;3.70;3.10;;;;;;;;;;4830696;29;20211;-90
2020/12/22 02:21:52;;;;;;;2.80;2.47;;;;;;;;;;4829620;29;20239;-83
2020/12/22 02:24:20;;;;;;;3.27;2.60;;;;;;;;;;4814939;29;20227;-84
2020/12/22 02:26:47;;;;;;;6.63;3.70;;;;;;;;;;4846494;29;20212;-82
2020/12/22 02:29:15;;;;;;;3.23;2.80;;;;;;;;;;4831449;29;20574;-87
2020/12/22 02:34:26;;;;;;;3.13;2.43;;;;;;;;;;4835645;29;20211;-82
2020/12/22 02:36:55;;;;;;;3.13;2.33;;;;;;;;;;4812624;29;20227;-82
2020/12/22 02:39:23;;;;;;;2.33;2.13;;;;;;;;;;4828528;29;20226;-83
2020/12/22 02:41:51;;;;;;;3.33;2.40;;;;;;;;;;4838600;29;20243;-83
2020/12/22 02:44:19;;;;;;;3.07;2.50;;;;;;;;;;4803902;29;20211;-81
2020/12/22 02:46:47;;;;;;;2.40;2.17;;;;;;;;;;4832581;29;20674;-82
2020/12/22 02:49:15;;;;;;;3.50;2.17;;;;;;;;;;4821509;29;20211;-83
2020/12/22 02:51:43;;;;;;;2.63;2.40;;;;;;;;;;4844184;29;20235;-89
2020/12/22 02:54:12;;;;;;;2.60;2.23;;;;;;;;;;4853131;29;20216;-90
2020/12/22 02:56:39;;;;;;;2.83;2.53;;;;;;;;;;4851330;29;20202;-88
2020/12/22 02:59:07;;;;;;;2.63;1.97;;;;;;;;;;4853401;29;20195;-89
2020/12/22 03:01:39;;;;;;;2.83;1.93;;;;;;;;;;4856494;29;20215;-91
2020/12/22 03:04:07;;;;;;;3.23;1.73;;;;;;;;;;4868114;29;20323;-90
2020/12/22 03:06:34;;;;;;;2.17;1.97;;;;;;;;;;4844329;29;20214;-82
2020/12/22 03:09:04;;;;;;;2.00;1.77;;;;;;;;;;4813521;29;20242;-81
2020/12/22 03:11:33;;;;;;;2.17;1.93;;;;;;;;;;4827820;29;20692;-82
2020/12/22 03:14:01;;;;;;;4.73;2.13;;;;;;;;;;4827776;29;20210;-82
2020/12/22 03:16:29;;;;;;;2.90;2.13;;;;;;;;;;4818560;29;20211;-82
2020/12/22 03:18:57;;;;;;;2.97;1.90;;;;;;;;;;4836178;29;20258;-83
2020/12/22 03:21:25;;;;;;;1.93;1.73;;;;;;;;;;4841954;29;20199;-82
2020/12/22 03:23:53;;;;;;;2.13;1.87;;;;;;;;;;4834237;29;20647;-82
2020/12/22 03:26:21;;;;;;;2.20;1.87;;;;;;;;;;4835080;29;20204;-82
2020/12/22 03:28:50;;;;;;;2.00;1.70;;;;;;;;;;4829924;29;20231;-82
2020/12/22 03:31:18;;;;;;;2.23;1.90;;;;;;;;;;4827623;29;20701;-82
2020/12/22 03:33:46;;;;;;;2.30;1.80;;;;;;;;;;4817475;29;20683;-83
2020/12/22 03:36:15;;;;;;;2.40;1.90;;;;;;;;;;4805903;29;20561;-83
2020/12/22 03:38:42;;;;;;;2.10;1.80;;;;;;;;;;4821255;29;20671;-83
2020/12/22 03:41:10;;;;;;;3.17;2.37;;;;;;;;;;4819598;29;20216;-83
2020/12/22 03:43:38;;;;;;;3.60;2.87;;;;;;;;;;4833640;29;20232;-86
2020/12/22 03:46:07;;;;;;;3.10;2.30;;;;;;;;;;4809032;29;20219;-83
2020/12/22 03:48:35;;;;;;;4.33;2.87;;;;;;;;;;4828472;29;20749;-82
2020/12/22 03:51:03;;;;;;;4.83;3.20;;;;;;;;;;4831472;29;20619;-82
2020/12/22 03:53:31;;;;;;;3.50;3.13;;;;;;;;;;4812013;29;20828;-82
2020/12/22 03:55:59;;;;;;;4.07;3.67;;;;;;;;;;4813155;29;20210;-82
2020/12/22 03:58:27;;;;;;;5.00;3.40;;;;;;;;;;4833171;29;20215;-83
2020/12/22 04:00:55;;;;;;;4.83;3.67;;;;;;;;;;4832574;29;20551;-82
2020/12/22 04:03:25;;;;;;;5.40;3.77;;;;;;;;;;4826700;29;20230;-82
2020/12/22 04:05:52;;;;;;;5.43;4.13;;;;;;;;;;4831920;29;20222;-86
2020/12/22 04:08:20;;;;;;;4.80;3.47;;;;;;;;;;4829962;29;20242;-85
2020/12/22 04:10:48;;;;;;;5.80;3.70;;;;;;;;;;4822470;29;20678;-83
2020/12/22 04:13:16;;;;;;;4.80;3.33;;;;;;;;;;4816621;29;20228;-82
2020/12/22 04:15:44;;;;;;;4.73;3.53;;;;;;;;;;4815089;29;20211;-82
2020/12/22 04:18:12;;;;;;;3.87;3.13;;;;;;;;;;4822624;29;20211;-82
2020/12/22 04:20:42;;;;;;;3.97;3.17;;;;;;;;;;4825525;29;20226;-83
2020/12/22 04:23:11;;;;;;;3.13;2.70;;;;;;;;;;4817717;29;20616;-82
2020/12/22 04:25:40;;;;;;;3.90;2.80;;;;;;;;;;4824772;29;20218;-83
2020/12/22 04:28:08;;;;;;;3.80;3.00;;;;;;;;;;4815767;29;20228;-82
2020/12/22 04:30:36;;;;;;;2.87;2.27;;;;;;;;;;4837128;29;20664;-82
2020/12/22 04:33:04;;;;;;;2.83;2.40;;;;;;;;;;4833861;29;20242;-82
2020/12/22 04:35:32;;;;;;;2.73;2.43;;;;;;;;;;4824730;29;20217;-82
2020/12/22 04:38:01;;;;;;;2.83;2.23;;;;;;;;;;4815779;29;20593;-82
2020/12/22 04:40:29;;;;;;;2.20;1.87;;;;;;;;;;4818136;29;20594;-82
2020/12/22 04:42:57;;;;;;;2.90;1.87;;;;;;;;;;4835342;29;20731;-82
2020/12/22 04:45:26;;;;;;;2.70;2.00;;;;;;;;;;4835580;29;20211;-83
2020/12/22 04:47:54;;;;;;;1.97;1.43;;;;;;;;;;4828322;29;20604;-85
2020/12/22 04:50:22;;;;;;;1.73;1.63;;;;;;;;;;4815562;29;20238;-86
2020/12/22 04:52:51;;;;;;;2.13;1.80;;;;;;;;;;4818846;29;20223;-83
2020/12/22 04:55:21;;;;;;;1.93;1.73;;;;;;;;;;4833967;29;20210;-82
2020/12/22 04:57:50;;;;;;;2.27;1.70;;;;;;;;;;4824809;29;20215;-84
2020/12/22 05:00:19;;;;;;;2.60;1.70;;;;;;;;;;4830743;29;20208;-83
2020/12/22 05:02:50;;;;;;;2.30;1.80;;;;;;;;;;4819383;29;20231;-85
2020/12/22 05:05:19;;;;;;;2.53;1.87;;;;;;;;;;4817432;29;20207;-83
2020/12/22 05:07:47;;;;;;;3.60;1.97;;;;;;;;;;4828955;29;20221;-82
2020/12/22 05:10:15;;;;;;;2.67;2.20;;;;;;;;;;4817893;29;20307;-82
2020/12/22 05:12:45;;;;;;;2.73;2.10;;;;;;;;;;4830297;29;20235;-82
2020/12/22 05:15:13;;;;;;;2.43;1.93;;;;;;;;;;4816821;29;20218;-82
2020/12/22 05:17:41;;;;;;;4.40;1.77;;;;;;;;;;4829558;29;20219;-83
2020/12/22 05:20:13;;;;;;;2.53;1.90;;;;;;;;;;4814084;29;20219;-83
2020/12/22 05:22:41;;;;;;;4.80;2.10;;;;;;;;;;4815011;29;20235;-84
2020/12/22 05:25:09;;;;;;;1.70;1.60;;;;;;;;;;4818806;29;20214;-83
2020/12/22 05:27:36;;;;;;;2.87;1.77;;;;;;;;;;4826820;29;20211;-86
2020/12/22 05:30:05;;;;;;;2.00;1.70;;;;;;;;;;4828589;29;20792;-82
2020/12/22 05:32:33;;;;;;;2.13;1.50;;;;;;;;;;4830056;29;20236;-83
2020/12/22 05:35:01;;;;;;;1.60;1.40;;;;;;;;;;4824716;29;20220;-83
2020/12/22 05:37:29;;;;;;;1.50;1.10;;;;;;;;;;4813069;29;20718;-85
2020/12/22 05:39:57;;;;;;;1.67;1.23;;;;;;;;;;4827976;29;20626;-86
2020/12/22 05:42:24;;;;;;;3.27;1.40;;;;;;;;;;4813425;29;20238;-84
2020/12/22 05:44:52;;;;;;;1.77;1.67;;;;;;;;;;4822938;29;20223;-82
2020/12/22 05:47:22;;;;;;;2.20;1.57;;;;;;;;;;4829812;29;20215;-82
2020/12/22 05:49:51;;;;;;;1.73;1.40;;;;;;;;;;4819879;29;20228;-82
2020/12/22 05:52:21;;;;;;;2.03;1.57;;;;;;;;;;4833377;29;20242;-81
2020/12/22 05:54:50;;;;;;;3.37;1.87;;;;;;;;;;4846867;29;20215;-82
2020/12/22 05:57:21;;;;;;;2.30;1.60;;;;;;;;;;4825178;29;20222;-82
2020/12/22 05:59:49;;;;;;;2.30;1.70;;;;;;;;;;4840404;29;20235;-86
2020/12/22 06:02:29;;;;;;;2.10;1.67;;;;;;;;;;4830499;29;20231;-85
2020/12/22 06:04:58;;;;;;;2.47;1.60;;;;;;;;;;4835693;29;20702;-82
2020/12/22 06:07:26;;;;;;;3.80;2.30;;;;;;;;;;4832156;29;20211;-84
2020/12/22 06:09:55;;;;;;;1.53;1.17;;;;;;;;;;4838147;29;20252;-82
2020/12/22 06:12:23;;;;;;;1.20;0.90;;;;;;;;;;4835579;29;20243;-81
2020/12/22 06:14:52;;;;;;;1.10;0.90;;;;;;;;;;4836272;29;20203;-82
2020/12/22 06:17:20;;;;;;;1.20;1.03;;;;;;;;;;4834040;29;20203;-85
2020/12/22 06:19:49;;;;;;;1.50;1.03;;;;;;;;;;4829418;29;20204;-82
2020/12/22 06:22:18;;;;;;;1.10;1.00;;;;;;;;;;4819574;29;20227;-82
2020/12/22 06:24:52;;;;;;;1.10;1.00;;;;;;;;;;4839865;29;20226;-82
2020/12/22 06:27:20;;;;;;;1.00;0.90;;;;;;;;;;4826168;29;20211;-87
2020/12/22 06:29:47;;;;;;;1.00;0.90;;;;;;;;;;4828454;29;20569;-82
2020/12/22 06:32:24;;;;;;;1.13;1.00;;;;;;;;;;4830793;29;20718;-82
2020/12/22 06:34:53;;;;;;;1.37;1.10;;;;;;;;;;4817759;29;20218;-83
2020/12/22 06:37:22;;;;;;;1.50;1.10;;;;;;;;;;4821188;29;20219;-82
2020/12/22 06:39:51;;;;;;;1.60;0.80;;;;;;;;;;4833103;29;20256;-81
2020/12/22 06:42:44;;;;;;;2.57;1.00;;;;;;;;;;4829056;29;20722;-83
2020/12/22 06:45:23;;;;;;;1.10;1.00;;;;;;;;;;4828101;29;20210;-83
2020/12/22 06:47:51;;;;;;;2.00;0.90;;;;;;;;;;4831952;29;20235;-82
2020/12/22 06:50:44;;;;;;;1.57;0.93;;;;;;;;;;4815245;29;20224;-82
2020/12/22 06:53:33;;;;;;;1.07;0.80;;;;;;;;;;4820422;29;20246;-84
2020/12/22 06:56:02;;;;;;;1.00;0.90;;;;;;;;;;4815099;29;20596;-81
2020/12/22 06:58:40;;;;;;;1.03;0.90;;;;;;;;;;4831537;29;20215;-84
2020/12/22 07:01:31;;;;;;;0.80;0.80;;;;;;;;;;4833849;29;20219;-87
2020/12/22 07:04:19;;;;;;;1.30;0.80;;;;;;;;;;4834972;29;20227;-81
2020/12/22 07:06:57;;;;;;;0.60;0.60;;;;;;;;;;4821469;29;20215;-85
2020/12/22 07:09:29;;;;;;;1.20;0.83;;;;;;;;;;4830620;29;20232;-87
2020/12/22 07:12:12;;;;;;;1.40;0.80;;;;;;;;;;4821259;29;20239;-81
2020/12/22 07:14:40;;;;;;;0.87;0.70;;;;;;;;;;4832615;29;20215;-82
2020/12/22 07:17:13;;;;;;;1.00;0.90;;;;;;;;;;4820946;29;20724;-81
2020/12/22 07:19:43;;;;;;;0.93;0.83;;;;;;;;;;4821812;29;20226;-81
2020/12/22 07:22:14;;;;;;;0.70;0.70;;;;;;;;;;4838046;29;20236;-87
2020/12/22 07:24:41;;;;;;;1.70;0.90;;;;;;;;;;4837787;29;20223;-85
2020/12/22 07:27:09;;;;;;;1.47;0.80;;;;;;;;;;4815255;29;20217;-86
2020/12/22 07:29:38;;;;;;;0.80;0.80;;;;;;;;;;4834677;29;20235;-82
2020/12/22 07:32:07;;;;;;;0.67;0.60;;;;;;;;;;4839011;29;20227;-81
2020/12/22 07:34:36;;;;;;;1.37;0.70;;;;;;;;;;4846552;29;20483;-81
2020/12/22 07:37:05;;;;;;;1.00;0.90;;;;;;;;;;4829482;29;20565;-81
2020/12/22 07:39:35;;;;;;;4.97;0.70;;;;;;;;;;4820711;29;20208;-85
2020/12/22 07:42:11;;;;;;;1.43;0.90;;;;;;;;;;4828877;29;20246;-82
2020/12/22 07:44:39;;;;;;;0.70;0.70;;;;;;;;;;4823009;29;20216;-80
2020/12/22 07:47:08;;;;;;;0.53;0.53;;;;;;;;;;4833258;29;20208;-81
2020/12/22 07:49:36;;;;;;;0.83;0.73;;;;;;;;;;4834481;29;20235;-80
2020/12/22 07:52:04;;;;;;;0.77;0.50;;;;;;;;;;4814002;29;20961;-85
2020/12/22 07:54:31;;;;;;;2.13;0.60;;;;;;;;;;4833493;29;20203;-81
2020/12/22 07:57:01;;;;;;;0.77;0.60;;;;;;;;;;4813054;29;20207;-81
2020/12/22 07:59:28;;;;;;;0.50;0.50;;;;;;;;;;4826575;29;20208;-84
2020/12/22 08:01:57;;;;;;;1.13;0.90;;;;;;;;;;4810506;29;20738;-81
2020/12/22 08:04:25;;;;;;;0.60;0.60;;;;;;;;;;4822643;29;20212;-86
2020/12/22 08:06:55;;;;;;;0.67;0.60;;;;;;;;;;4809545;29;20216;-81
2020/12/22 08:09:24;;;;;;;0.50;0.50;;;;;;;;;;4811611;29;20219;-82
2020/12/22 08:11:56;;;;;;;0.40;0.40;;;;;;;;;;4823084;29;20757;-88
2020/12/22 08:14:26;;;;;;;0.57;0.50;;;;;;;;;;4830128;29;20585;-81
2020/12/22 08:16:56;;;;;;;1.63;0.90;;;;;;;;;;4824579;29;20215;-81
2020/12/22 08:19:24;;;;;;;0.50;0.50;;;;;;;;;;4834223;29;20210;-84
2020/12/22 08:21:55;;;;;;;0.50;0.40;;;;;;;;;;4812303;29;20242;-82
2020/12/22 08:24:23;;;;;;;0.53;0.47;;;;;;;;;;4830535;29;20227;-83
2020/12/22 08:26:52;;;;;;;0.80;0.80;;;;;;;;;;4828196;29;20215;-87
2020/12/22 08:29:20;;;;;;;0.47;0.47;;;;;;;;;;4831072;29;20250;-81
2020/12/22 08:31:48;;;;;;;2.27;0.80;;;;;;;;;;4825767;29;20253;-85
2020/12/22 08:34:17;;;;;;;0.73;0.60;;;;;;;;;;4812479;29;20222;-81
2020/12/22 08:36:45;;;;;;;0.50;0.50;;;;;;;;;;4830723;29;20489;-84
2020/12/22 08:39:18;;;;;;;0.83;0.67;;;;;;;;;;4826995;29;20207;-93
2020/12/22 08:41:48;;;;;;;1.63;0.67;;;;;;;;;;4847819;29;20212;-91
2020/12/22 08:44:16;;;;;;;1.53;0.60;;;;;;;;;;4845760;29;20685;-86
2020/12/22 08:46:46;;;;;;;1.00;0.60;;;;;;;;;;4823299;29;20222;-85
2020/12/22 08:49:15;;;;;;;0.93;0.67;;;;;;;;;;4825564;29;20208;-83
2020/12/22 08:51:45;;;;;;;0.73;0.50;;;;;;;;;;4825918;29;20706;-83
2020/12/22 08:54:13;;;;;;;0.63;0.50;;;;;;;;;;4811139;29;20894;-81
2020/12/22 08:56:41;;;;;;;0.50;0.50;;;;;;;;;;4822967;29;20607;-83
2020/12/22 08:59:09;;;;;;;0.87;0.57;;;;;;;;;;4812731;29;20216;-86
2020/12/22 09:01:45;;;;;;;0.67;0.67;;;;;;;;;;4815235;29;20235;-81
2020/12/22 09:04:15;;;;;;;0.67;0.50;;;;;;;;;;4827845;29;20694;-82
2020/12/22 09:06:44;;;;;;;0.50;0.50;;;;;;;;;;4822386;29;20226;-83
2020/12/22 09:09:15;;;;;;;0.60;0.60;;;;;;;;;;4805193;29;20219;-87
2020/12/22 09:11:44;;;;;;;0.63;0.60;;;;;;;;;;4809925;29;20757;-89
2020/12/22 09:14:13;;;;;;;0.57;0.47;;;;;;;;;;4813977;29;20584;-86
2020/12/22 09:16:49;;;;;;;3.03;0.70;;;;;;;;;;4825388;29;20586;-81
2020/12/22 09:19:20;;;;;;;1.13;0.80;;;;;;;;;;4832972;29;20206;-83
2020/12/22 09:21:57;;;;;;;0.83;0.67;;;;;;;;;;4829907;29;20246;-81
2020/12/22 09:24:25;;;;;;;0.50;0.50;;;;;;;;;;4824714;29;20210;-83
2020/12/22 09:26:54;;;;;;;1.27;0.60;;;;;;;;;;4826417;29;20215;-83
2020/12/22 09:29:22;;;;;;;1.30;0.77;;;;;;;;;;4814252;29;20589;-90
2020/12/22 09:31:50;;;;;;;1.00;0.70;;;;;;;;;;4818923;29;20247;-88
2020/12/22 09:34:18;;;;;;;0.70;0.70;;;;;;;;;;4821383;29;20219;-88
2020/12/22 09:36:54;;;;;;;1.30;0.80;;;;;;;;;;4814044;29;20235;-84
2020/12/22 09:39:22;;;;;;;0.80;0.70;;;;;;;;;;4824180;29;20208;-88
2020/12/22 09:41:50;;;;;;;1.17;0.80;;;;;;;;;;4813808;29;20230;-90
2020/12/22 09:44:19;;;;;;;0.70;0.70;;;;;;;;;;4797208;29;20569;-86
2020/12/22 09:46:48;;;;;;;0.60;0.60;;;;;;;;;;4792235;29;20211;-86
2020/12/22 09:49:15;;;;;;;0.70;0.70;;;;;;;;;;4808523;29;20214;-86
2020/12/22 09:51:44;;;;;;;0.98;0.75;;;;;;;;;;4790432;29;20245;-88
2020/12/22 09:54:17;;;;;;;0.57;0.55;;;;;;;;;;4799225;29;20215;-86
2020/12/22 09:56:47;;;;;;;0.77;0.70;;;;;;;;;;4793146;29;20381;-90
2020/12/22 09:59:15;;;;;;;0.73;0.68;;;;;;;;;;4819454;29;20203;-90
2020/12/22 10:01:43;;;;;;;2.92;0.73;;;;;;;;;;4823475;29;20223;-90
2020/12/22 10:04:11;;;;;;;0.70;0.70;;;;;;;;;;4852070;29;20229;-93
2020/12/22 10:06:39;;;;;;;0.85;0.85;;;;;;;;;;4833694;29;20207;-92
2020/12/22 10:09:08;;;;;;;0.73;0.70;;;;;;;;;;4839782;29;20211;-92
2020/12/22 10:11:37;;;;;;;0.77;0.70;;;;;;;;;;4820978;29;20698;-89
2020/12/22 10:14:06;;;;;;;1.75;0.90;;;;;;;;;;4817559;29;20208;-89
2020/12/22 10:16:34;;;;;;;1.27;0.70;;;;;;;;;;4813547;29;20212;-89
2020/12/22 10:19:02;;;;;;;0.63;0.60;;;;;;;;;;4826974;29;20220;-87
2020/12/22 10:21:30;;;;;;;0.93;0.63;;;;;;;;;;4817527;29;20223;-90
2020/12/22 10:23:59;;;;;;;0.63;0.63;;;;;;;;;;4828135;29;20219;-89
2020/12/22 10:26:29;;;;;;;0.60;0.60;;;;;;;;;;4820646;29;20219;-91
2020/12/22 10:28:57;;;;;;;0.80;0.80;;;;;;;;;;4809344;29;20215;-89
2020/12/22 10:31:26;;;;;;;0.70;0.60;;;;;;;;;;4821508;29;20208;-92
2020/12/22 10:33:56;;;;;;;0.60;0.60;;;;;;;;;;4839417;29;20204;-91
2020/12/22 10:36:26;;;;;;;0.88;0.55;;;;;;;;;;4839747;29;20202;-92
2020/12/22 10:38:55;;;;;;;0.68;0.63;;;;;;;;;;4851164;29;20198;-92
2020/12/22 10:41:23;;;;;;;1.20;0.90;;;;;;;;;;4838676;29;20212;-89
2020/12/22 10:43:52;;;;;;;0.52;0.50;;;;;;;;;;4818273;29;20223;-89
2020/12/22 10:46:20;;;;;;;0.80;0.80;;;;;;;;;;4809626;29;20614;-90
2020/12/22 10:48:49;;;;;;;1.35;0.85;;;;;;;;;;4816942;29;20219;-92
2020/12/22 10:51:17;;;;;;;1.73;0.80;;;;;;;;;;4818574;29;20242;-88
2020/12/22 10:53:46;;;;;;;0.60;0.60;;;;;;;;;;4817262;29;20465;-89
2020/12/22 10:56:16;;;;;;;0.75;0.73;;;;;;;;;;4816985;29;20212;-87
2020/12/22 10:58:44;;;;;;;0.93;0.60;;;;;;;;;;4825245;29;20211;-89
2020/12/22 11:01:16;;;;;;;2.17;0.70;;;;;;;;;;4836309;29;20237;-89
2020/12/22 11:03:44;;;;;;;1.58;0.70;;;;;;;;;;4829004;29;20204;-89
2020/12/22 11:06:26;;;;;;;0.60;0.60;;;;;;;;;;4828794;29;20222;-89
2020/12/22 11:08:54;;;;;;;2.05;0.70;;;;;;;;;;4826939;29;20211;-88
2020/12/22 11:11:22;;;;;;;0.65;0.60;;;;;;;;;;4811358;29;20256;-89
2020/12/22 11:13:49;;;;;;;0.60;0.60;;;;;;;;;;4825351;29;20230;-87
2020/12/22 11:16:24;;;;;;;0.50;0.50;;;;;;;;;;4844692;29;20216;-88
2020/12/22 11:18:52;;;;;;;0.40;0.40;;;;;;;;;;4830408;29;20215;-89
2020/12/22 11:21:23;;;;;;;0.60;0.60;;;;;;;;;;4810027;29;20215;-88
2020/12/22 11:23:50;;;;;;;0.40;0.40;;;;;;;;;;4807339;29;20219;-89
2020/12/22 11:26:21;;;;;;;0.60;0.50;;;;;;;;;;4813061;29;20212;-91
2020/12/22 11:28:49;;;;;;;0.50;0.50;;;;;;;;;;4809540;29;20215;-85
2020/12/22 11:31:16;;;;;;;0.60;0.60;;;;;;;;;;4838024;29;20724;-86
2020/12/22 11:33:45;;;;;;;0.75;0.75;;;;;;;;;;4827475;29;20222;-92
2020/12/22 11:36:18;;;;;;;1.05;0.60;;;;;;;;;;4849167;29;20191;-93
2020/12/22 11:38:47;;;;;;;0.40;0.40;;;;;;;;;;4824404;29;20207;-87
2020/12/22 11:41:20;;;;;;;0.88;0.57;;;;;;;;;;4829938;29;20212;-87
2020/12/22 11:43:48;;;;;;;0.52;0.50;;;;;;;;;;4816300;29;20590;-88
2020/12/22 11:46:16;;;;;;;0.80;0.60;;;;;;;;;;4808885;29;20215;-91
2020/12/22 11:48:45;;;;;;;1.02;0.50;;;;;;;;;;4810902;29;20222;-87
2020/12/22 11:51:14;;;;;;;0.80;0.70;;;;;;;;;;4823367;29;20254;-90
2020/12/22 11:53:43;;;;;;;1.60;0.70;;;;;;;;;;4811926;29;20222;-89
2020/12/22 11:56:13;;;;;;;0.40;0.40;;;;;;;;;;4809033;29;20214;-88
2020/12/22 11:58:40;;;;;;;0.60;0.50;;;;;;;;;;4808702;29;20212;-89
2020/12/22 12:01:08;;;;;;;1.37;0.70;;;;;;;;;;4824225;29;20213;-86
2020/12/22 12:03:36;;;;;;;0.80;0.70;;;;;;;;;;4817142;29;20230;-86
2020/12/22 12:06:08;;;;;;;0.70;0.68;;;;;;;;;;4816279;29;20231;-89
2020/12/22 12:08:37;;;;;;;0.93;0.60;;;;;;;;;;4814722;29;20207;-90
2020/12/22 12:11:05;;;;;;;0.52;0.52;;;;;;;;;;4819837;29;20235;-89
2020/12/22 12:13:32;;;;;;;1.58;0.85;;;;;;;;;;4823395;29;20236;-90
2020/12/22 12:16:01;;;;;;;0.50;0.50;;;;;;;;;;4810330;29;20212;-88
2020/12/22 12:18:28;;;;;;;0.65;0.65;;;;;;;;;;4823945;29;20218;-87
2020/12/22 12:20:56;;;;;;;0.57;0.57;;;;;;;;;;4825355;29;20215;-91
2020/12/22 12:23:24;;;;;;;0.75;0.60;;;;;;;;;;4820605;29;20711;-88
2020/12/22 12:25:53;;;;;;;0.70;0.70;;;;;;;;;;4820491;29;20679;-86
2020/12/22 12:28:21;;;;;;;1.38;0.63;;;;;;;;;;4813251;29;20215;-88
2020/12/22 12:30:49;;;;;;;0.52;0.50;;;;;;;;;;4816866;29;20626;-86
2020/12/22 12:33:16;;;;;;;0.60;0.50;;;;;;;;;;4818543;29;20227;-90
2020/12/22 12:35:45;;;;;;;0.50;0.50;;;;;;;;;;4816946;29;20218;-84
2020/12/22 12:38:13;;;;;;;0.52;0.50;;;;;;;;;;4812366;29;20203;-87
2020/12/22 12:40:41;;;;;;;0.50;0.50;;;;;;;;;;4828527;29;20212;-90
2020/12/22 12:43:09;;;;;;;0.60;0.50;;;;;;;;;;4832219;29;20232;-86
2020/12/22 12:45:37;;;;;;;0.50;0.50;;;;;;;;;;4832500;29;20203;-90
2020/12/22 12:48:04;;;;;;;2.33;0.60;;;;;;;;;;4827964;29;20203;-87
2020/12/22 12:50:32;;;;;;;0.73;0.60;;;;;;;;;;4816814;29;20208;-87
2020/12/22 12:53:00;;;;;;;0.63;0.50;;;;;;;;;;4825733;29;20234;-91
2020/12/22 12:55:32;;;;;;;1.00;0.90;;;;;;;;;;4826513;29;20200;-88
2020/12/22 12:58:01;;;;;;;0.50;0.50;;;;;;;;;;4821753;29;20690;-85
2020/12/22 13:00:29;;;;;;;0.50;0.50;;;;;;;;;;4821389;29;20211;-89
2020/12/22 13:02:56;;;;;;;1.80;0.60;;;;;;;;;;4818327;29;20608;-87
2020/12/22 13:05:24;;;;;;;0.70;0.70;;;;;;;;;;4823888;29;20214;-89
2020/12/22 13:07:52;;;;;;;3.00;0.80;;;;;;;;;;4823286;29;20204;-86
2020/12/22 13:10:19;;;;;;;1.63;0.70;;;;;;;;;;4808760;29;20574;-90
2020/12/22 13:12:47;;;;;;;0.87;0.60;;;;;;;;;;4818715;29;20724;-92
2020/12/22 13:15:16;;;;;;;0.40;0.40;;;;;;;;;;4808729;29;20271;-89
2020/12/22 13:17:44;;;;;;;0.60;0.57;;;;;;;;;;4813684;29;20215;-89
2020/12/22 13:20:12;;;;;;;1.60;0.60;;;;;;;;;;4818171;29;20215;-90
2020/12/22 13:22:40;;;;;;;1.30;0.90;;;;;;;;;;4813323;29;20223;-91
2020/12/22 13:25:08;;;;;;;0.60;0.50;;;;;;;;;;4824054;29;20212;-90
2020/12/22 13:27:35;;;;;;;0.93;0.80;;;;;;;;;;4830491;29;20219;-87
2020/12/22 13:30:03;;;;;;;0.60;0.50;;;;;;;;;;4826264;29;20594;-86
2020/12/22 13:32:32;;;;;;;1.93;1.00;;;;;;;;;;4833150;29;20265;-87
2020/12/22 13:35:00;;;;;;;1.00;0.50;;;;;;;;;;4826370;29;20676;-88
2020/12/22 13:37:48;;;;;;;0.80;0.63;;;;;;;;;;4817769;29;20207;-91
2020/12/22 13:40:26;;;;;;;4.10;0.60;;;;;;;;;;4824025;29;20203;-91
2020/12/22 13:42:53;;;;;;;0.83;0.50;;;;;;;;;;4825292;29;20223;-88
2020/12/22 13:45:21;;;;;;;0.70;0.50;;;;;;;;;;4818097;29;20214;-89
2020/12/22 13:47:49;;;;;;;0.70;0.70;;;;;;;;;;4820611;29;20218;-88
2020/12/22 13:50:17;;;;;;;0.80;0.53;;;;;;;;;;4832484;29;20214;-87
2020/12/22 13:52:45;;;;;;;0.60;0.60;;;;;;;;;;4844692;29;20239;-86
2020/12/22 13:55:13;;;;;;;0.70;0.70;;;;;;;;;;4835802;29;20206;-88
2020/12/22 13:57:41;;;;;;;1.47;0.70;;;;;;;;;;4817237;29;20229;-88
2020/12/22 14:00:09;;;;;;;0.93;0.77;;;;;;;;;;4814611;29;20211;-89
2020/12/22 14:02:37;;;;;;;0.60;0.60;;;;;;;;;;4814260;29;20231;-88
2020/12/22 14:05:05;;;;;;;0.87;0.87;;;;;;;;;;4832813;29;20203;-88
2020/12/22 14:07:33;;;;;;;1.23;0.80;;;;;;;;;;4815950;29;20585;-87
2020/12/22 14:10:01;;;;;;;0.70;0.60;;;;;;;;;;4829680;29;20593;-87
2020/12/22 14:12:28;;;;;;;0.97;0.80;;;;;;;;;;4816307;29;20247;-90
2020/12/22 14:14:56;;;;;;;1.57;0.87;;;;;;;;;;4814391;29;20221;-85
2020/12/22 14:17:23;;;;;;;1.30;0.70;;;;;;;;;;4827528;29;20223;-87
2020/12/22 14:19:51;;;;;;;0.97;0.70;;;;;;;;;;4817401;29;20211;-88
2020/12/22 14:22:20;;;;;;;0.70;0.60;;;;;;;;;;4825508;29;20227;-89
2020/12/22 14:24:47;;;;;;;0.90;0.60;;;;;;;;;;4833745;29;20230;-85
2020/12/22 14:27:18;;;;;;;0.80;0.70;;;;;;;;;;4818022;29;20219;-85
2020/12/22 14:29:46;;;;;;;2.00;1.00;;;;;;;;;;4822930;29;20206;-84
2020/12/22 14:32:14;;;;;;;0.70;0.70;;;;;;;;;;4851762;29;20253;-93
2020/12/22 14:34:42;;;;;;;1.53;0.70;;;;;;;;;;4854850;29;20205;-91
2020/12/22 14:37:10;;;;;;;0.77;0.70;;;;;;;;;;4830809;29;20220;-89
2020/12/22 14:39:39;;;;;;;0.80;0.80;;;;;;;;;;4830327;29;20655;-85
2020/12/22 14:42:08;;;;;;;0.70;0.70;;;;;;;;;;4819997;29;20247;-88
2020/12/22 14:44:35;;;;;;;0.80;0.70;;;;;;;;;;4825205;29;20204;-89
2020/12/22 14:47:03;;;;;;;1.27;0.70;;;;;;;;;;4823040;29;20218;-88
2020/12/22 14:49:30;;;;;;;1.03;0.93;;;;;;;;;;4831623;29;20227;-84
2020/12/22 14:51:58;;;;;;;0.93;0.53;;;;;;;;;;4821174;29;20749;-86
2020/12/22 14:54:25;;;;;;;1.53;0.70;;;;;;;;;;4817686;29;20204;-88
2020/12/22 14:56:58;;;;;;;0.70;0.70;;;;;;;;;;4836148;29;20230;-87
2020/12/22 14:59:26;;;;;;;1.77;0.70;;;;;;;;;;4817620;29;20208;-87
2020/12/22 15:01:58;;;;;;;1.10;0.87;;;;;;;;;;4819013;29;20235;-90
2020/12/22 15:04:27;;;;;;;1.13;0.90;;;;;;;;;;4827377;29;20219;-90
2020/12/22 15:06:58;;;;;;;1.27;0.77;;;;;;;;;;4819247;29;20584;-87
2020/12/22 15:09:25;;;;;;;1.00;0.80;;;;;;;;;;4819109;29;20227;-88
2020/12/22 15:11:54;;;;;;;2.50;0.60;;;;;;;;;;4824598;29;20258;-87
2020/12/22 15:14:22;;;;;;;0.73;0.70;;;;;;;;;;4827528;29;20215;-87
2020/12/22 15:16:49;;;;;;;0.60;0.60;;;;;;;;;;4821628;29;20212;-84
2020/12/22 15:19:17;;;;;;;0.60;0.53;;;;;;;;;;4833854;29;20219;-88